createdAt,value
2018-09-03T00:02:04.393Z,101431.97
2018-09-03T00:06:58.926Z,101435.38
2018-09-03T00:11:53.824Z,101417.71
2018-09-03T00:16:48.375Z,101415.86
2018-09-03T00:21:43.095Z,101405.64
2018-09-03T00:26:37.784Z,101394.52
2018-09-03T00:31:37.840Z,101389.53
2018-09-03T00:36:37.639Z,101371.97
2018-09-03T00:41:37.267Z,101364.30
2018-09-03T00:46:37.263Z,101361.50
2018-09-03T00:51:31.944Z,101357.99
2018-09-03T00:56:26.624Z,101351.80
2018-09-03T01:01:21.647Z,101353.72
2018-09-03T01:06:16.101Z,101354.08
2018-09-03T01:11:11.054Z,101351.53
2018-09-03T01:16:05.580Z,101353.10
2018-09-03T01:21:00.220Z,101353.84
2018-09-03T01:25:54.702Z,101351.38
2018-09-03T01:30:49.217Z,101357.01
2018-09-03T01:35:43.704Z,101354.68
2018-09-03T01:40:38.212Z,101344.94
2018-09-03T01:45:32.762Z,101356.14
2018-09-03T01:50:27.262Z,101361.15
2018-09-03T01:55:21.817Z,101378.95
2018-09-03T02:00:16.367Z,101389.81
2018-09-03T02:05:11.233Z,101396.28
2018-09-03T02:10:05.727Z,101396.28
2018-09-03T02:15:00.405Z,101402.22
2018-09-03T02:19:54.901Z,101396.98
2018-09-03T02:24:49.593Z,101398.22
2018-09-03T02:29:44.138Z,101387.14
2018-09-03T02:34:38.608Z,101372.13
2018-09-03T02:39:33.425Z,101368.84
2018-09-03T02:44:27.920Z,101373.11
2018-09-03T02:49:22.392Z,101375.79
2018-09-03T02:54:16.926Z,101386.14
2018-09-03T02:59:11.420Z,101375.91
2018-09-03T03:04:05.884Z,101356.78
2018-09-03T03:09:00.756Z,101362.87
2018-09-03T03:13:55.280Z,101351.90
2018-09-03T03:18:49.802Z,101344.84
2018-09-03T03:23:44.299Z,101350.69
2018-09-03T03:28:38.804Z,101346.54
2018-09-03T03:33:33.289Z,101336.80
2018-09-03T03:38:28.096Z,101343.38
2018-09-03T03:43:22.726Z,101339.23
2018-09-03T03:48:17.333Z,101331.31
2018-09-03T03:53:11.865Z,101317.30
2018-09-03T03:58:06.567Z,101314.48
2018-09-03T04:03:01.364Z,101316.57
2018-09-03T04:07:56.214Z,101304.86
2018-09-03T04:12:58.339Z,101312.64
2018-09-03T04:17:52.865Z,101314.50
2018-09-03T04:22:47.580Z,101317.66
2018-09-03T04:27:42.299Z,101309.36
2018-09-03T04:32:36.784Z,101309.97
2018-09-03T04:37:31.324Z,101316.16
2018-09-03T04:42:26.973Z,101307.77
2018-09-03T04:47:21.986Z,101299.95
2018-09-03T04:52:17.201Z,101293.50
2018-09-03T04:57:11.666Z,101289.34
2018-09-03T05:02:06.430Z,101297.62
2018-09-03T05:07:00.881Z,101297.48
2018-09-03T05:11:55.416Z,101301.03
2018-09-03T05:16:50.156Z,101292.51
2018-09-03T05:21:45.178Z,101305.66
2018-09-03T05:26:39.691Z,101303.94
2018-09-03T05:31:34.661Z,101309.41
2018-09-03T05:36:29.698Z,101305.89
2018-09-03T05:41:26.001Z,101302.09
2018-09-03T05:46:20.647Z,101301.22
2018-09-03T05:51:15.140Z,101295.47
2018-09-03T05:56:09.690Z,101286.89
2018-09-03T06:01:05.658Z,101283.34
2018-09-03T06:06:00.310Z,101289.65
2018-09-03T06:10:54.744Z,101287.17
2018-09-03T06:15:49.546Z,101292.83
2018-09-03T06:20:44.108Z,101293.65
2018-09-03T06:25:38.852Z,101285.39
2018-09-03T06:30:33.458Z,101281.66
2018-09-03T06:35:28.025Z,101284.02
2018-09-03T06:40:22.519Z,101279.28
2018-09-03T06:45:16.956Z,101259.20
2018-09-03T06:50:11.470Z,101264.74
2018-09-03T06:55:06.472Z,101265.09
2018-09-03T07:00:00.919Z,101270.84
2018-09-03T07:04:55.345Z,101266.59
2018-09-03T07:09:49.998Z,101270.66
2018-09-03T07:14:44.688Z,101268.39
2018-09-03T07:19:39.142Z,101278.79
2018-09-03T07:24:34.160Z,101271.89
2018-09-03T07:29:28.856Z,101271.47
2018-09-03T07:34:24.199Z,101260.81
2018-09-03T07:39:18.666Z,101261.41
2018-09-03T07:44:13.172Z,101260.06
2018-09-03T07:49:07.822Z,101268.00
2018-09-03T07:54:02.300Z,101273.33
2018-09-03T07:58:56.733Z,101262.91
2018-09-03T08:03:51.194Z,101273.67
2018-09-03T08:08:45.632Z,101264.85
2018-09-03T08:13:41.572Z,101275.73
2018-09-03T08:18:36.109Z,101270.27
2018-09-03T08:23:30.561Z,101265.17
2018-09-03T08:28:25.008Z,101241.84
2018-09-03T08:33:19.498Z,101236.39
2018-09-03T08:38:14.116Z,101240.64
2018-09-03T08:43:08.739Z,101259.52
2018-09-03T08:48:03.204Z,101264.50
2018-09-03T08:52:57.664Z,101265.24
2018-09-03T08:57:52.140Z,101265.02
2018-09-03T09:02:46.804Z,101264.10
2018-09-03T09:07:41.562Z,101266.72
2018-09-03T09:12:36.461Z,101273.59
2018-09-03T09:17:31.132Z,101266.23
2018-09-03T09:22:25.722Z,101273.67
2018-09-03T09:27:20.348Z,101270.47
2018-09-03T09:32:14.829Z,101269.00
2018-09-03T09:37:09.458Z,101260.16
2018-09-03T09:42:04.067Z,101249.69
2018-09-03T09:46:58.596Z,101239.99
2018-09-03T09:51:53.167Z,101235.55
2018-09-03T09:56:47.626Z,101240.64
2018-09-03T10:01:42.076Z,101238.30
2018-09-03T10:06:37.064Z,101229.25
2018-09-03T10:11:31.584Z,101224.22
2018-09-03T10:16:26.145Z,101211.77
2018-09-03T10:21:20.605Z,101212.30
2018-09-03T10:26:15.094Z,101217.22
2018-09-03T10:31:10.325Z,101218.39
2018-09-03T10:36:04.809Z,101208.88
2018-09-03T10:40:59.825Z,101199.61
2018-09-03T10:45:54.374Z,101188.15
2018-09-03T10:50:49.188Z,101192.45
2018-09-03T10:55:43.630Z,101199.35
2018-09-03T11:00:38.352Z,101194.05
2018-09-03T11:05:32.928Z,101195.69
2018-09-03T11:10:27.880Z,101181.86
2018-09-03T11:15:22.330Z,101172.71
2018-09-03T11:20:25.632Z,101160.77
2018-09-03T11:25:20.532Z,101151.48
2018-09-03T11:30:15.446Z,101147.56
2018-09-03T11:35:10.159Z,101140.31
2018-09-03T11:40:05.122Z,101140.67
2018-09-03T11:45:00.066Z,101144.78
2018-09-03T11:49:54.902Z,101141.92
2018-09-03T11:54:49.893Z,101138.67
2018-09-03T11:59:44.660Z,101143.88
2018-09-03T12:04:39.739Z,101141.22
2018-09-03T12:09:34.260Z,101144.00
2018-09-03T12:14:31.712Z,101147.21
2018-09-03T12:19:26.402Z,101136.01
2018-09-03T12:24:21.078Z,101135.09
2018-09-03T12:29:15.824Z,101134.84
2018-09-03T12:34:10.522Z,101134.70
2018-09-03T12:39:08.793Z,101133.66
2018-09-03T12:44:03.680Z,101130.41
2018-09-03T12:48:58.491Z,101124.08
2018-09-03T12:53:53.504Z,101135.12
2018-09-03T12:58:48.745Z,101129.42
2018-09-03T13:03:43.877Z,101132.95
2018-09-03T13:08:39.306Z,101132.22
2018-09-03T13:13:34.036Z,101125.35
2018-09-03T13:18:29.040Z,101131.77
2018-09-03T13:23:23.617Z,101126.91
2018-09-03T13:28:18.373Z,101133.03
2018-09-03T13:33:13.068Z,101124.81
2018-09-03T13:38:07.687Z,101114.75
2018-09-03T13:43:02.390Z,101115.78
2018-09-03T13:47:56.866Z,101114.94
2018-09-03T13:52:51.314Z,101108.43
2018-09-03T13:57:46.460Z,101110.74
2018-09-03T14:02:41.102Z,101114.86
2018-09-03T14:07:35.568Z,101108.12
2018-09-03T14:12:30.671Z,101107.34
2018-09-03T14:17:28.015Z,101119.51
2018-09-03T14:22:22.795Z,101112.36
2018-09-03T14:27:17.851Z,101104.52
2018-09-03T14:32:12.871Z,101107.23
2018-09-03T14:37:07.905Z,101107.84
2018-09-03T14:42:02.750Z,101097.94
2018-09-03T14:46:58.423Z,101104.09
2018-09-03T14:51:53.337Z,101096.23
2018-09-03T14:56:47.842Z,101093.17
2018-09-03T15:01:42.661Z,101095.29
2018-09-03T15:06:37.421Z,101092.33
2018-09-03T15:11:34.061Z,101092.34
2018-09-03T15:16:32.216Z,101088.11
2018-09-03T15:21:27.101Z,101088.13
2018-09-03T15:26:22.225Z,101086.43
2018-09-03T15:31:17.124Z,101096.22
2018-09-03T15:36:12.240Z,101089.28
2018-09-03T15:41:07.362Z,101094.67
2018-09-03T15:46:02.944Z,101084.14
2018-09-03T15:50:57.559Z,101086.83
2018-09-03T15:55:52.240Z,101081.03
2018-09-03T16:00:47.686Z,101086.93
2018-09-03T16:05:42.660Z,101083.30
2018-09-03T16:10:37.529Z,101087.19
2018-09-03T16:15:32.802Z,101087.97
2018-09-03T16:20:28.314Z,101086.73
2018-09-03T16:25:23.034Z,101088.14
2018-09-03T16:30:18.042Z,101075.39
2018-09-03T16:35:12.639Z,101077.06
2018-09-03T16:40:08.976Z,101077.55
2018-09-03T16:45:03.606Z,101077.37
2018-09-03T16:49:58.179Z,101082.40
2018-09-03T16:54:52.928Z,101078.45
2018-09-03T16:59:48.113Z,101075.17
2018-09-03T17:04:43.208Z,101077.20
2018-09-03T17:09:37.935Z,101070.08
2018-09-03T17:14:32.970Z,101072.30
2018-09-03T17:19:27.902Z,101075.27
2018-09-03T17:24:22.613Z,101071.81
2018-09-03T17:29:17.912Z,101074.59
2018-09-03T17:34:12.932Z,101079.12
2018-09-03T17:39:09.152Z,101082.62
2018-09-03T17:44:03.763Z,101090.66
2018-09-03T17:48:58.527Z,101082.94
2018-09-03T17:53:53.111Z,101084.05
2018-09-03T17:58:48.321Z,101079.97
2018-09-03T18:03:42.907Z,101086.95
2018-09-03T18:08:38.523Z,101091.11
2018-09-03T18:13:33.328Z,101093.74
2018-09-03T18:18:28.587Z,101099.25
2018-09-03T18:23:23.523Z,101089.56
2018-09-03T18:28:18.859Z,101092.56
2018-09-03T18:33:15.080Z,101091.66
2018-09-03T18:38:09.822Z,101093.46
2018-09-03T18:43:04.742Z,101093.95
2018-09-03T18:47:59.464Z,101100.31
2018-09-03T18:52:54.874Z,101097.39
2018-09-03T18:58:05.683Z,101093.31
2018-09-03T19:03:00.841Z,101105.88
2018-09-03T19:07:56.206Z,101111.61
2018-09-03T19:12:50.910Z,101103.22
2018-09-03T19:17:46.010Z,101105.30
2018-09-03T19:22:40.834Z,101102.67
2018-09-03T19:27:36.192Z,101101.13
2018-09-03T19:32:30.836Z,101095.04
2018-09-03T19:37:25.999Z,101106.44
2018-09-03T19:42:20.673Z,101102.20
2018-09-03T19:47:15.406Z,101102.02
2018-09-03T19:52:09.963Z,101103.28
2018-09-03T19:57:04.588Z,101096.98
2018-09-03T20:01:59.610Z,101091.27
2018-09-03T20:06:56.015Z,101087.00
2018-09-03T20:11:50.852Z,101089.50
2018-09-03T20:16:45.738Z,101082.29
2018-09-03T20:21:40.525Z,101081.63
2018-09-03T20:26:35.334Z,101084.83
2018-09-03T20:31:29.870Z,101079.94
2018-09-03T20:36:24.674Z,101084.31
2018-09-03T20:41:21.549Z,101081.91
2018-09-03T20:46:16.187Z,101081.72
2018-09-03T20:51:12.167Z,101077.59
2018-09-03T20:56:06.958Z,101081.73
2018-09-03T21:01:01.464Z,101079.47
2018-09-03T21:05:56.054Z,101083.80
2018-09-03T21:10:50.676Z,101074.78
2018-09-03T21:15:45.266Z,101079.25
2018-09-03T21:20:44.524Z,101074.64
2018-09-03T21:25:38.983Z,101078.48
2018-09-03T21:30:33.597Z,101080.94
2018-09-03T21:35:40.353Z,101080.87
2018-09-03T21:40:35.106Z,101079.82
2018-09-03T21:45:29.591Z,101088.52
2018-09-03T21:50:24.118Z,101093.03
2018-09-03T21:55:18.599Z,101098.92
2018-09-03T22:00:13.852Z,101094.66
2018-09-03T22:05:09.269Z,101099.21
2018-09-03T22:10:04.362Z,101102.67
2018-09-03T22:14:58.816Z,101102.95
2018-09-03T22:19:53.782Z,101103.72
2018-09-03T22:24:48.315Z,101105.20
2018-09-03T22:29:42.852Z,101096.08
2018-09-03T22:34:37.379Z,101089.12
2018-09-03T22:39:31.965Z,101092.47
2018-09-03T22:44:26.876Z,101094.23
2018-09-03T22:49:21.830Z,101093.52
2018-09-03T22:54:16.807Z,101091.45
2018-09-03T22:59:11.372Z,101087.70
2018-09-03T23:04:06.205Z,101090.19
2018-09-03T23:09:00.640Z,101082.89
2018-09-03T23:13:55.321Z,101084.99
2018-09-03T23:18:49.804Z,101087.13
2018-09-03T23:23:44.297Z,101082.80
2018-09-03T23:28:38.770Z,101082.05
2018-09-03T23:33:33.338Z,101084.52
2018-09-03T23:38:28.048Z,101077.09
2018-09-03T23:43:22.572Z,101070.66
2018-09-03T23:48:17.030Z,101067.63
2018-09-03T23:53:12.152Z,101062.25
2018-09-03T23:58:06.721Z,101067.34
